sensor_id;sensor_type;location;lat;lon;timestamp;P1;durP1;ratioP1;P2;durP2;ratioP2
69979;SDS011;57318;56.232;43.944;2023-04-15T00:00:02;4.53;;;1.58;;
69979;SDS011;57318;56.232;43.944;2023-04-15T00:02:29;1.35;;;1.08;;
69979;SDS011;57318;56.232;43.944;2023-04-15T00:04:55;3.13;;;1.67;;
69979;SDS011;57318;56.232;43.944;2023-04-15T00:07:20;5.00;;;1.43;;
69979;SDS011;57318;56.232;43.944;2023-04-15T00:09:46;3.10;;;1.20;;
69979;SDS011;57318;56.232;43.944;2023-04-15T00:12:12;2.57;;;1.50;;
69979;SDS011;57318;56.232;43.944;2023-04-15T00:14:37;2.10;;;1.30;;
69979;SDS011;57318;56.232;43.944;2023-04-15T00:17:03;1.57;;;1.10;;
69979;SDS011;57318;56.232;43.944;2023-04-15T00:19:30;1.42;;;1.33;;
69979;SDS011;57318;56.232;43.944;2023-04-15T00:21:56;3.72;;;1.60;;
69979;SDS011;57318;56.232;43.944;2023-04-15T00:24:22;1.47;;;1.20;;
69979;SDS011;57318;56.232;43.944;2023-04-15T00:26:48;1.38;;;1.10;;
69979;SDS011;57318;56.232;43.944;2023-04-15T00:29:14;1.20;;;1.00;;
69979;SDS011;57318;56.232;43.944;2023-04-15T00:31:40;2.03;;;1.07;;
69979;SDS011;57318;56.232;43.944;2023-04-15T00:34:06;3.20;;;1.20;;
69979;SDS011;57318;56.232;43.944;2023-04-15T00:36:32;2.30;;;1.13;;
69979;SDS011;57318;56.232;43.944;2023-04-15T00:38:59;1.20;;;1.10;;
69979;SDS011;57318;56.232;43.944;2023-04-15T00:41:25;3.97;;;1.40;;
69979;SDS011;57318;56.232;43.944;2023-04-15T00:43:50;2.43;;;1.50;;
69979;SDS011;57318;56.232;43.944;2023-04-15T00:46:16;1.58;;;1.40;;
69979;SDS011;57318;56.232;43.944;2023-04-15T00:48:45;1.70;;;1.23;;
69979;SDS011;57318;56.232;43.944;2023-04-15T00:51:12;3.80;;;1.58;;
69979;SDS011;57318;56.232;43.944;2023-04-15T00:53:38;2.17;;;1.30;;
69979;SDS011;57318;56.232;43.944;2023-04-15T00:56:05;1.48;;;1.30;;
69979;SDS011;57318;56.232;43.944;2023-04-15T00:58:31;2.47;;;1.33;;
69979;SDS011;57318;56.232;43.944;2023-04-15T01:00:56;6.55;;;1.25;;
69979;SDS011;57318;56.232;43.944;2023-04-15T01:03:23;2.35;;;1.27;;
69979;SDS011;57318;56.232;43.944;2023-04-15T01:05:49;3.97;;;1.40;;
69979;SDS011;57318;56.232;43.944;2023-04-15T01:08:22;2.45;;;1.13;;
69979;SDS011;57318;56.232;43.944;2023-04-15T01:10:51;1.95;;;1.40;;
69979;SDS011;57318;56.232;43.944;2023-04-15T01:13:19;3.42;;;1.33;;
69979;SDS011;57318;56.232;43.944;2023-04-15T01:15:45;2.78;;;1.63;;
69979;SDS011;57318;56.232;43.944;2023-04-15T01:18:11;2.17;;;1.40;;
69979;SDS011;57318;56.232;43.944;2023-04-15T01:20:37;2.63;;;1.25;;
69979;SDS011;57318;56.232;43.944;2023-04-15T01:23:03;2.00;;;1.00;;
69979;SDS011;57318;56.232;43.944;2023-04-15T01:25:33;2.67;;;1.40;;
69979;SDS011;57318;56.232;43.944;2023-04-15T01:27:59;2.28;;;1.13;;
69979;SDS011;57318;56.232;43.944;2023-04-15T01:30:25;2.22;;;1.30;;
69979;SDS011;57318;56.232;43.944;2023-04-15T01:32:51;1.73;;;1.27;;
69979;SDS011;57318;56.232;43.944;2023-04-15T01:35:36;5.18;;;1.38;;
69979;SDS011;57318;56.232;43.944;2023-04-15T01:38:04;1.60;;;1.40;;
69979;SDS011;57318;56.232;43.944;2023-04-15T01:40:31;5.55;;;1.27;;
69979;SDS011;57318;56.232;43.944;2023-04-15T01:42:59;2.15;;;1.30;;
69979;SDS011;57318;56.232;43.944;2023-04-15T01:45:27;3.28;;;1.27;;
69979;SDS011;57318;56.232;43.944;2023-04-15T01:47:54;3.25;;;1.30;;
69979;SDS011;57318;56.232;43.944;2023-04-15T01:52:48;2.30;;;1.30;;
69979;SDS011;57318;56.232;43.944;2023-04-15T01:57:41;1.83;;;1.30;;
69979;SDS011;57318;56.232;43.944;2023-04-15T02:00:08;4.07;;;1.30;;
69979;SDS011;57318;56.232;43.944;2023-04-15T02:02:36;3.50;;;1.55;;
69979;SDS011;57318;56.232;43.944;2023-04-15T02:05:04;3.10;;;1.38;;
69979;SDS011;57318;56.232;43.944;2023-04-15T02:07:31;4.80;;;1.67;;
69979;SDS011;57318;56.232;43.944;2023-04-15T02:12:24;1.77;;;1.30;;
69979;SDS011;57318;56.232;43.944;2023-04-15T02:14:52;4.22;;;1.33;;
69979;SDS011;57318;56.232;43.944;2023-04-15T02:17:19;2.80;;;1.50;;
69979;SDS011;57318;56.232;43.944;2023-04-15T02:19:46;6.88;;;1.50;;
69979;SDS011;57318;56.232;43.944;2023-04-15T02:22:13;2.70;;;1.42;;
69979;SDS011;57318;56.232;43.944;2023-04-15T02:24:43;2.50;;;1.45;;
69979;SDS011;57318;56.232;43.944;2023-04-15T02:27:14;1.17;;;1.08;;
69979;SDS011;57318;56.232;43.944;2023-04-15T02:29:43;3.00;;;1.45;;
69979;SDS011;57318;56.232;43.944;2023-04-15T02:32:11;1.55;;;1.38;;
69979;SDS011;57318;56.232;43.944;2023-04-15T02:34:39;3.58;;;1.42;;
69979;SDS011;57318;56.232;43.944;2023-04-15T02:37:08;2.25;;;1.50;;
69979;SDS011;57318;56.232;43.944;2023-04-15T02:39:35;2.65;;;1.50;;
69979;SDS011;57318;56.232;43.944;2023-04-15T02:42:02;4.10;;;1.48;;
69979;SDS011;57318;56.232;43.944;2023-04-15T02:44:31;4.00;;;1.60;;
69979;SDS011;57318;56.232;43.944;2023-04-15T02:46:59;5.35;;;1.30;;
69979;SDS011;57318;56.232;43.944;2023-04-15T02:51:55;11.40;;;2.30;;
69979;SDS011;57318;56.232;43.944;2023-04-15T02:54:23;1.83;;;1.17;;
69979;SDS011;57318;56.232;43.944;2023-04-15T02:56:51;3.45;;;1.55;;
69979;SDS011;57318;56.232;43.944;2023-04-15T02:59:20;2.15;;;1.58;;
69979;SDS011;57318;56.232;43.944;2023-04-15T03:01:47;2.63;;;1.63;;
69979;SDS011;57318;56.232;43.944;2023-04-15T03:06:41;1.88;;;1.40;;
69979;SDS011;57318;56.232;43.944;2023-04-15T03:09:08;5.80;;;1.80;;
69979;SDS011;57318;56.232;43.944;2023-04-15T03:11:35;3.40;;;1.40;;
69979;SDS011;57318;56.232;43.944;2023-04-15T03:14:05;4.22;;;1.40;;
69979;SDS011;57318;56.232;43.944;2023-04-15T03:16:32;4.20;;;2.08;;
69979;SDS011;57318;56.232;43.944;2023-04-15T03:21:26;2.45;;;1.58;;
69979;SDS011;57318;56.232;43.944;2023-04-15T03:26:23;3.42;;;1.17;;
69979;SDS011;57318;56.232;43.944;2023-04-15T03:28:53;2.33;;;1.40;;
69979;SDS011;57318;56.232;43.944;2023-04-15T03:31:20;3.45;;;1.55;;
69979;SDS011;57318;56.232;43.944;2023-04-15T03:33:48;2.78;;;1.45;;
69979;SDS011;57318;56.232;43.944;2023-04-15T03:36:15;2.25;;;1.45;;
69979;SDS011;57318;56.232;43.944;2023-04-15T03:38:42;3.90;;;1.50;;
69979;SDS011;57318;56.232;43.944;2023-04-15T03:43:35;1.77;;;1.00;;
69979;SDS011;57318;56.232;43.944;2023-04-15T03:48:29;3.72;;;1.90;;
69979;SDS011;57318;56.232;43.944;2023-04-15T03:50:56;7.88;;;1.60;;
69979;SDS011;57318;56.232;43.944;2023-04-15T03:55:49;1.63;;;1.17;;
69979;SDS011;57318;56.232;43.944;2023-04-15T03:58:17;3.70;;;1.50;;
69979;SDS011;57318;56.232;43.944;2023-04-15T04:00:44;2.85;;;1.30;;
69979;SDS011;57318;56.232;43.944;2023-04-15T04:03:11;3.67;;;1.95;;
69979;SDS011;57318;56.232;43.944;2023-04-15T04:08:06;3.47;;;1.10;;
69979;SDS011;57318;56.232;43.944;2023-04-15T04:13:00;3.13;;;1.20;;
69979;SDS011;57318;56.232;43.944;2023-04-15T04:15:27;1.27;;;1.10;;
69979;SDS011;57318;56.232;43.944;2023-04-15T04:20:21;13.68;;;1.67;;
69979;SDS011;57318;56.232;43.944;2023-04-15T04:22:48;4.25;;;1.35;;
69979;SDS011;57318;56.232;43.944;2023-04-15T04:27:42;2.10;;;1.30;;
69979;SDS011;57318;56.232;43.944;2023-04-15T04:30:10;3.08;;;1.50;;
69979;SDS011;57318;56.232;43.944;2023-04-15T04:32:37;6.68;;;1.60;;
69979;SDS011;57318;56.232;43.944;2023-04-15T04:37:31;1.30;;;1.00;;
69979;SDS011;57318;56.232;43.944;2023-04-15T04:42:24;3.28;;;1.35;;
69979;SDS011;57318;56.232;43.944;2023-04-15T04:47:18;4.20;;;1.30;;
69979;SDS011;57318;56.232;43.944;2023-04-15T04:52:11;5.50;;;1.52;;
69979;SDS011;57318;56.232;43.944;2023-04-15T04:57:05;8.38;;;1.30;;
69979;SDS011;57318;56.232;43.944;2023-04-15T04:59:33;6.28;;;1.40;;
69979;SDS011;57318;56.232;43.944;2023-04-15T05:04:27;4.00;;;1.38;;
69979;SDS011;57318;56.232;43.944;2023-04-15T05:09:20;3.40;;;1.60;;
69979;SDS011;57318;56.232;43.944;2023-04-15T05:14:14;3.05;;;1.35;;
69979;SDS011;57318;56.232;43.944;2023-04-15T05:19:07;1.88;;;1.30;;
69979;SDS011;57318;56.232;43.944;2023-04-15T05:24:01;3.75;;;1.17;;
69979;SDS011;57318;56.232;43.944;2023-04-15T05:28:54;3.35;;;1.42;;
69979;SDS011;57318;56.232;43.944;2023-04-15T05:33:48;2.90;;;1.40;;
69979;SDS011;57318;56.232;43.944;2023-04-15T05:36:15;4.72;;;1.90;;
69979;SDS011;57318;56.232;43.944;2023-04-15T05:41:08;1.85;;;1.40;;
69979;SDS011;57318;56.232;43.944;2023-04-15T05:46:02;2.55;;;1.40;;
69979;SDS011;57318;56.232;43.944;2023-04-15T05:50:55;7.22;;;1.58;;
69979;SDS011;57318;56.232;43.944;2023-04-15T05:53:22;3.92;;;1.63;;
69979;SDS011;57318;56.232;43.944;2023-04-15T05:55:49;2.65;;;1.55;;
69979;SDS011;57318;56.232;43.944;2023-04-15T05:58:16;4.28;;;1.50;;
69979;SDS011;57318;56.232;43.944;2023-04-15T06:03:11;1.98;;;1.30;;
69979;SDS011;57318;56.232;43.944;2023-04-15T06:05:38;4.90;;;1.40;;
69979;SDS011;57318;56.232;43.944;2023-04-15T06:08:06;4.38;;;1.33;;
69979;SDS011;57318;56.232;43.944;2023-04-15T06:10:34;4.50;;;1.35;;
69979;SDS011;57318;56.232;43.944;2023-04-15T06:13:02;5.15;;;1.55;;
69979;SDS011;57318;56.232;43.944;2023-04-15T06:15:29;5.32;;;1.60;;
69979;SDS011;57318;56.232;43.944;2023-04-15T06:17:57;6.47;;;1.67;;
69979;SDS011;57318;56.232;43.944;2023-04-15T06:22:50;8.27;;;2.25;;
69979;SDS011;57318;56.232;43.944;2023-04-15T06:25:17;3.03;;;1.70;;
69979;SDS011;57318;56.232;43.944;2023-04-15T06:27:45;2.33;;;1.63;;
69979;SDS011;57318;56.232;43.944;2023-04-15T06:30:12;2.72;;;1.80;;
69979;SDS011;57318;56.232;43.944;2023-04-15T06:32:39;4.15;;;1.90;;
69979;SDS011;57318;56.232;43.944;2023-04-15T06:35:06;20.80;;;3.10;;
69979;SDS011;57318;56.232;43.944;2023-04-15T06:37:33;5.95;;;2.10;;
69979;SDS011;57318;56.232;43.944;2023-04-15T06:40:00;7.05;;;2.47;;
69979;SDS011;57318;56.232;43.944;2023-04-15T06:42:26;13.18;;;2.42;;
69979;SDS011;57318;56.232;43.944;2023-04-15T06:44:53;3.45;;;2.00;;
69979;SDS011;57318;56.232;43.944;2023-04-15T06:47:21;6.88;;;2.08;;
69979;SDS011;57318;56.232;43.944;2023-04-15T06:49:48;7.43;;;2.33;;
69979;SDS011;57318;56.232;43.944;2023-04-15T06:52:14;7.53;;;2.40;;
69979;SDS011;57318;56.232;43.944;2023-04-15T06:54:42;4.22;;;1.98;;
69979;SDS011;57318;56.232;43.944;2023-04-15T06:57:08;7.28;;;1.90;;
69979;SDS011;57318;56.232;43.944;2023-04-15T06:59:35;2.95;;;2.08;;
69979;SDS011;57318;56.232;43.944;2023-04-15T07:02:02;5.15;;;2.10;;
69979;SDS011;57318;56.232;43.944;2023-04-15T07:04:30;3.00;;;2.10;;
69979;SDS011;57318;56.232;43.944;2023-04-15T07:06:58;3.40;;;2.40;;
69979;SDS011;57318;56.232;43.944;2023-04-15T07:09:26;2.72;;;2.00;;
69979;SDS011;57318;56.232;43.944;2023-04-15T07:11:52;65.68;;;5.70;;
69979;SDS011;57318;56.232;43.944;2023-04-15T07:14:19;6.78;;;2.35;;
69979;SDS011;57318;56.232;43.944;2023-04-15T07:16:46;6.53;;;2.38;;
69979;SDS011;57318;56.232;43.944;2023-04-15T07:19:13;4.75;;;2.10;;
69979;SDS011;57318;56.232;43.944;2023-04-15T07:21:40;5.15;;;2.55;;
69979;SDS011;57318;56.232;43.944;2023-04-15T07:24:07;13.75;;;2.67;;
69979;SDS011;57318;56.232;43.944;2023-04-15T07:26:35;7.80;;;2.53;;
69979;SDS011;57318;56.232;43.944;2023-04-15T07:29:02;5.20;;;2.08;;
69979;SDS011;57318;56.232;43.944;2023-04-15T07:31:29;5.60;;;2.10;;
69979;SDS011;57318;56.232;43.944;2023-04-15T07:33:56;5.55;;;2.17;;
69979;SDS011;57318;56.232;43.944;2023-04-15T07:36:23;6.63;;;2.10;;
69979;SDS011;57318;56.232;43.944;2023-04-15T07:38:51;5.72;;;2.38;;
69979;SDS011;57318;56.232;43.944;2023-04-15T07:41:18;13.38;;;2.78;;
69979;SDS011;57318;56.232;43.944;2023-04-15T07:43:46;5.60;;;2.17;;
69979;SDS011;57318;56.232;43.944;2023-04-15T07:46:14;6.05;;;2.00;;
69979;SDS011;57318;56.232;43.944;2023-04-15T07:48:41;6.05;;;2.15;;
69979;SDS011;57318;56.232;43.944;2023-04-15T07:51:08;10.68;;;2.40;;
69979;SDS011;57318;56.232;43.944;2023-04-15T07:53:36;8.57;;;2.00;;
69979;SDS011;57318;56.232;43.944;2023-04-15T07:56:03;2.40;;;1.60;;
69979;SDS011;57318;56.232;43.944;2023-04-15T07:58:30;3.55;;;1.80;;
69979;SDS011;57318;56.232;43.944;2023-04-15T08:00:57;8.32;;;2.63;;
69979;SDS011;57318;56.232;43.944;2023-04-15T08:03:24;10.90;;;2.42;;
69979;SDS011;57318;56.232;43.944;2023-04-15T08:05:51;4.80;;;2.17;;
69979;SDS011;57318;56.232;43.944;2023-04-15T08:08:19;2.10;;;1.65;;
69979;SDS011;57318;56.232;43.944;2023-04-15T08:10:46;10.75;;;2.33;;
69979;SDS011;57318;56.232;43.944;2023-04-15T08:13:13;4.03;;;2.20;;
69979;SDS011;57318;56.232;43.944;2023-04-15T08:15:40;3.85;;;2.30;;
69979;SDS011;57318;56.232;43.944;2023-04-15T08:18:07;6.20;;;2.55;;
69979;SDS011;57318;56.232;43.944;2023-04-15T08:20:34;9.90;;;2.60;;
69979;SDS011;57318;56.232;43.944;2023-04-15T08:23:01;4.93;;;2.20;;
69979;SDS011;57318;56.232;43.944;2023-04-15T08:25:28;8.25;;;2.20;;
69979;SDS011;57318;56.232;43.944;2023-04-15T08:27:55;5.38;;;2.10;;
69979;SDS011;57318;56.232;43.944;2023-04-15T08:30:25;4.90;;;2.38;;
69979;SDS011;57318;56.232;43.944;2023-04-15T08:32:52;5.35;;;2.60;;
69979;SDS011;57318;56.232;43.944;2023-04-15T08:35:18;5.28;;;2.67;;
69979;SDS011;57318;56.232;43.944;2023-04-15T08:37:45;25.73;;;5.50;;
69979;SDS011;57318;56.232;43.944;2023-04-15T08:40:12;5.28;;;1.98;;
69979;SDS011;57318;56.232;43.944;2023-04-15T08:42:43;5.10;;;2.30;;
69979;SDS011;57318;56.232;43.944;2023-04-15T08:45:12;5.03;;;1.92;;
69979;SDS011;57318;56.232;43.944;2023-04-15T08:47:39;5.78;;;2.08;;
69979;SDS011;57318;56.232;43.944;2023-04-15T08:50:08;10.27;;;2.50;;
69979;SDS011;57318;56.232;43.944;2023-04-15T08:52:36;3.75;;;1.73;;
69979;SDS011;57318;56.232;43.944;2023-04-15T08:55:03;6.63;;;2.38;;
69979;SDS011;57318;56.232;43.944;2023-04-15T08:57:32;5.57;;;2.33;;
69979;SDS011;57318;56.232;43.944;2023-04-15T09:00:02;4.28;;;2.00;;
69979;SDS011;57318;56.232;43.944;2023-04-15T09:02:29;7.47;;;2.22;;
69979;SDS011;57318;56.232;43.944;2023-04-15T09:04:57;4.70;;;1.80;;
69979;SDS011;57318;56.232;43.944;2023-04-15T09:07:23;4.00;;;2.10;;
69979;SDS011;57318;56.232;43.944;2023-04-15T09:09:50;4.60;;;2.10;;
69979;SDS011;57318;56.232;43.944;2023-04-15T09:12:18;6.18;;;2.10;;
69979;SDS011;57318;56.232;43.944;2023-04-15T09:14:45;8.73;;;2.20;;
69979;SDS011;57318;56.232;43.944;2023-04-15T09:17:13;2.30;;;1.90;;
69979;SDS011;57318;56.232;43.944;2023-04-15T09:19:45;5.57;;;2.50;;
69979;SDS011;57318;56.232;43.944;2023-04-15T09:22:12;6.20;;;2.15;;
69979;SDS011;57318;56.232;43.944;2023-04-15T09:24:39;2.38;;;1.90;;
69979;SDS011;57318;56.232;43.944;2023-04-15T09:27:07;8.13;;;2.30;;
69979;SDS011;57318;56.232;43.944;2023-04-15T09:29:34;6.05;;;4.63;;
69979;SDS011;57318;56.232;43.944;2023-04-15T09:32:09;5.15;;;2.28;;
69979;SDS011;57318;56.232;43.944;2023-04-15T09:34:39;8.98;;;3.00;;
69979;SDS011;57318;56.232;43.944;2023-04-15T09:37:06;5.22;;;2.55;;
69979;SDS011;57318;56.232;43.944;2023-04-15T09:39:46;3.30;;;2.45;;
69979;SDS011;57318;56.232;43.944;2023-04-15T09:42:15;5.47;;;2.58;;
69979;SDS011;57318;56.232;43.944;2023-04-15T09:44:49;7.22;;;3.08;;
69979;SDS011;57318;56.232;43.944;2023-04-15T09:47:26;6.35;;;2.40;;
69979;SDS011;57318;56.232;43.944;2023-04-15T09:49:55;8.35;;;2.63;;
69979;SDS011;57318;56.232;43.944;2023-04-15T09:52:22;10.40;;;2.50;;
69979;SDS011;57318;56.232;43.944;2023-04-15T09:54:51;4.53;;;2.28;;
69979;SDS011;57318;56.232;43.944;2023-04-15T09:57:22;4.10;;;2.40;;
69979;SDS011;57318;56.232;43.944;2023-04-15T09:59:50;4.35;;;2.42;;
69979;SDS011;57318;56.232;43.944;2023-04-15T10:02:17;6.70;;;2.40;;
69979;SDS011;57318;56.232;43.944;2023-04-15T10:04:46;11.13;;;2.70;;
69979;SDS011;57318;56.232;43.944;2023-04-15T10:07:14;5.40;;;2.83;;
69979;SDS011;57318;56.232;43.944;2023-04-15T10:09:41;5.25;;;2.15;;
69979;SDS011;57318;56.232;43.944;2023-04-15T10:12:11;48.67;;;5.63;;
69979;SDS011;57318;56.232;43.944;2023-04-15T10:14:41;9.20;;;2.45;;
69979;SDS011;57318;56.232;43.944;2023-04-15T10:17:10;10.55;;;3.13;;
69979;SDS011;57318;56.232;43.944;2023-04-15T10:19:40;5.75;;;2.60;;
69979;SDS011;57318;56.232;43.944;2023-04-15T10:22:07;5.70;;;3.08;;
69979;SDS011;57318;56.232;43.944;2023-04-15T10:24:34;3.15;;;2.53;;
69979;SDS011;57318;56.232;43.944;2023-04-15T10:27:04;2.45;;;2.25;;
69979;SDS011;57318;56.232;43.944;2023-04-15T10:29:31;3.88;;;2.53;;
69979;SDS011;57318;56.232;43.944;2023-04-15T10:31:58;9.50;;;3.17;;
69979;SDS011;57318;56.232;43.944;2023-04-15T10:34:27;5.03;;;2.65;;
69979;SDS011;57318;56.232;43.944;2023-04-15T10:36:55;6.88;;;2.65;;
69979;SDS011;57318;56.232;43.944;2023-04-15T10:42:05;2.33;;;2.13;;
69979;SDS011;57318;56.232;43.944;2023-04-15T10:44:44;6.15;;;3.45;;
69979;SDS011;57318;56.232;43.944;2023-04-15T10:47:15;9.02;;;2.85;;
69979;SDS011;57318;56.232;43.944;2023-04-15T10:49:46;4.57;;;2.50;;
69979;SDS011;57318;56.232;43.944;2023-04-15T10:52:22;3.83;;;2.60;;
69979;SDS011;57318;56.232;43.944;2023-04-15T10:55:01;2.40;;;2.20;;
69979;SDS011;57318;56.232;43.944;2023-04-15T10:57:33;3.65;;;2.33;;
69979;SDS011;57318;56.232;43.944;2023-04-15T11:05:16;4.80;;;2.30;;
69979;SDS011;57318;56.232;43.944;2023-04-15T11:12:44;11.52;;;3.00;;
69979;SDS011;57318;56.232;43.944;2023-04-15T11:18:09;7.68;;;2.20;;
69979;SDS011;57318;56.232;43.944;2023-04-15T11:20:42;5.47;;;2.47;;
69979;SDS011;57318;56.232;43.944;2023-04-15T11:23:10;10.05;;;2.70;;
69979;SDS011;57318;56.232;43.944;2023-04-15T11:25:38;2.95;;;2.30;;
69979;SDS011;57318;56.232;43.944;2023-04-15T11:28:05;5.13;;;2.50;;
69979;SDS011;57318;56.232;43.944;2023-04-15T11:30:33;3.95;;;2.55;;
69979;SDS011;57318;56.232;43.944;2023-04-15T11:33:03;6.57;;;2.58;;
69979;SDS011;57318;56.232;43.944;2023-04-15T11:35:35;6.20;;;2.47;;
69979;SDS011;57318;56.232;43.944;2023-04-15T11:38:08;2.53;;;2.30;;
69979;SDS011;57318;56.232;43.944;2023-04-15T11:40:40;6.20;;;3.03;;
69979;SDS011;57318;56.232;43.944;2023-04-15T11:45:46;6.43;;;3.17;;
69979;SDS011;57318;56.232;43.944;2023-04-15T11:48:13;4.60;;;2.50;;
69979;SDS011;57318;56.232;43.944;2023-04-15T11:50:40;2.65;;;2.22;;
69979;SDS011;57318;56.232;43.944;2023-04-15T11:53:07;5.35;;;2.40;;
69979;SDS011;57318;56.232;43.944;2023-04-15T11:55:45;14.27;;;2.90;;
69979;SDS011;57318;56.232;43.944;2023-04-15T11:58:13;2.40;;;2.20;;
69979;SDS011;57318;56.232;43.944;2023-04-15T12:00:53;7.30;;;2.70;;
69979;SDS011;57318;56.232;43.944;2023-04-15T12:03:35;6.88;;;2.78;;
69979;SDS011;57318;56.232;43.944;2023-04-15T12:06:10;19.17;;;4.40;;
69979;SDS011;57318;56.232;43.944;2023-04-15T12:16:33;5.18;;;2.70;;
69979;SDS011;57318;56.232;43.944;2023-04-15T12:19:04;3.80;;;2.50;;
69979;SDS011;57318;56.232;43.944;2023-04-15T12:21:33;13.25;;;3.08;;
69979;SDS011;57318;56.232;43.944;2023-04-15T12:24:02;4.75;;;2.47;;
69979;SDS011;57318;56.232;43.944;2023-04-15T12:26:30;3.90;;;2.60;;
69979;SDS011;57318;56.232;43.944;2023-04-15T12:29:06;4.90;;;3.03;;
69979;SDS011;57318;56.232;43.944;2023-04-15T12:31:33;6.28;;;3.00;;
69979;SDS011;57318;56.232;43.944;2023-04-15T12:34:01;3.70;;;2.53;;
69979;SDS011;57318;56.232;43.944;2023-04-15T12:36:28;9.40;;;3.63;;
69979;SDS011;57318;56.232;43.944;2023-04-15T12:39:00;7.43;;;3.08;;
69979;SDS011;57318;56.232;43.944;2023-04-15T12:41:29;3.40;;;3.00;;
69979;SDS011;57318;56.232;43.944;2023-04-15T12:43:55;10.05;;;3.50;;
69979;SDS011;57318;56.232;43.944;2023-04-15T12:48:47;5.75;;;2.90;;
69979;SDS011;57318;56.232;43.944;2023-04-15T12:53:38;6.65;;;3.20;;
69979;SDS011;57318;56.232;43.944;2023-04-15T12:58:30;6.43;;;3.58;;
69979;SDS011;57318;56.232;43.944;2023-04-15T13:03:22;5.70;;;3.08;;
69979;SDS011;57318;56.232;43.944;2023-04-15T13:05:47;4.43;;;3.10;;
69979;SDS011;57318;56.232;43.944;2023-04-15T13:08:13;5.40;;;3.42;;
69979;SDS011;57318;56.232;43.944;2023-04-15T13:10:39;6.90;;;2.90;;
69979;SDS011;57318;56.232;43.944;2023-04-15T13:13:06;5.82;;;3.40;;
69979;SDS011;57318;56.232;43.944;2023-04-15T13:15:32;5.72;;;3.25;;
69979;SDS011;57318;56.232;43.944;2023-04-15T13:20:24;4.80;;;3.00;;
69979;SDS011;57318;56.232;43.944;2023-04-15T13:22:51;6.55;;;3.15;;
69979;SDS011;57318;56.232;43.944;2023-04-15T13:25:18;3.65;;;2.83;;
69979;SDS011;57318;56.232;43.944;2023-04-15T13:27:45;9.63;;;4.78;;
69979;SDS011;57318;56.232;43.944;2023-04-15T13:30:11;3.47;;;2.88;;
69979;SDS011;57318;56.232;43.944;2023-04-15T13:32:37;45.28;;;4.75;;
69979;SDS011;57318;56.232;43.944;2023-04-15T13:35:03;9.05;;;3.22;;
69979;SDS011;57318;56.232;43.944;2023-04-15T13:37:29;11.65;;;3.47;;
69979;SDS011;57318;56.232;43.944;2023-04-15T13:42:22;7.43;;;4.82;;
69979;SDS011;57318;56.232;43.944;2023-04-15T13:44:50;6.70;;;3.70;;
69979;SDS011;57318;56.232;43.944;2023-04-15T13:47:17;8.07;;;3.15;;
69979;SDS011;57318;56.232;43.944;2023-04-15T13:49:44;7.90;;;3.20;;
69979;SDS011;57318;56.232;43.944;2023-04-15T13:52:10;7.15;;;3.70;;
69979;SDS011;57318;56.232;43.944;2023-04-15T13:54:36;5.43;;;3.33;;
69979;SDS011;57318;56.232;43.944;2023-04-15T13:57:02;10.10;;;3.50;;
69979;SDS011;57318;56.232;43.944;2023-04-15T13:59:28;9.82;;;3.33;;
69979;SDS011;57318;56.232;43.944;2023-04-15T14:01:53;7.68;;;2.90;;
69979;SDS011;57318;56.232;43.944;2023-04-15T14:04:19;6.50;;;3.42;;
69979;SDS011;57318;56.232;43.944;2023-04-15T14:06:45;6.28;;;3.25;;
69979;SDS011;57318;56.232;43.944;2023-04-15T14:09:10;9.18;;;2.80;;
69979;SDS011;57318;56.232;43.944;2023-04-15T14:11:37;4.57;;;2.92;;
69979;SDS011;57318;56.232;43.944;2023-04-15T14:14:03;3.20;;;2.88;;
69979;SDS011;57318;56.232;43.944;2023-04-15T14:16:31;16.58;;;4.07;;
69979;SDS011;57318;56.232;43.944;2023-04-15T14:18:57;3.63;;;2.70;;
69979;SDS011;57318;56.232;43.944;2023-04-15T14:21:23;5.13;;;2.33;;
69979;SDS011;57318;56.232;43.944;2023-04-15T14:23:50;6.85;;;2.67;;
69979;SDS011;57318;56.232;43.944;2023-04-15T14:26:16;13.30;;;2.97;;
69979;SDS011;57318;56.232;43.944;2023-04-15T14:28:41;18.60;;;3.00;;
69979;SDS011;57318;56.232;43.944;2023-04-15T14:31:09;7.18;;;2.58;;
69979;SDS011;57318;56.232;43.944;2023-04-15T14:33:34;3.78;;;2.83;;
69979;SDS011;57318;56.232;43.944;2023-04-15T14:36:00;4.37;;;2.50;;
69979;SDS011;57318;56.232;43.944;2023-04-15T14:38:26;19.17;;;3.97;;
69979;SDS011;57318;56.232;43.944;2023-04-15T14:40:52;10.47;;;3.00;;
69979;SDS011;57318;56.232;43.944;2023-04-15T14:43:17;10.07;;;2.93;;
69979;SDS011;57318;56.232;43.944;2023-04-15T14:45:43;24.87;;;5.13;;
69979;SDS011;57318;56.232;43.944;2023-04-15T14:48:09;6.50;;;2.70;;
69979;SDS011;57318;56.232;43.944;2023-04-15T14:50:36;4.45;;;2.83;;
69979;SDS011;57318;56.232;43.944;2023-04-15T14:53:02;5.60;;;2.85;;
69979;SDS011;57318;56.232;43.944;2023-04-15T14:55:28;4.13;;;2.63;;
69979;SDS011;57318;56.232;43.944;2023-04-15T14:57:54;6.23;;;3.30;;
69979;SDS011;57318;56.232;43.944;2023-04-15T15:00:20;20.73;;;4.23;;
69979;SDS011;57318;56.232;43.944;2023-04-15T15:02:46;8.23;;;2.70;;
69979;SDS011;57318;56.232;43.944;2023-04-15T15:05:12;4.67;;;2.60;;
69979;SDS011;57318;56.232;43.944;2023-04-15T15:07:37;3.97;;;2.37;;
69979;SDS011;57318;56.232;43.944;2023-04-15T15:10:05;5.05;;;2.67;;
69979;SDS011;57318;56.232;43.944;2023-04-15T15:12:31;15.60;;;3.72;;
69979;SDS011;57318;56.232;43.944;2023-04-15T15:14:58;5.45;;;2.67;;
69979;SDS011;57318;56.232;43.944;2023-04-15T15:17:23;9.98;;;3.60;;
69979;SDS011;57318;56.232;43.944;2023-04-15T15:19:49;5.03;;;2.90;;
69979;SDS011;57318;56.232;43.944;2023-04-15T15:22:15;36.37;;;6.17;;
69979;SDS011;57318;56.232;43.944;2023-04-15T15:24:41;12.95;;;4.03;;
69979;SDS011;57318;56.232;43.944;2023-04-15T15:27:07;10.33;;;4.13;;
69979;SDS011;57318;56.232;43.944;2023-04-15T15:29:33;8.37;;;3.60;;
69979;SDS011;57318;56.232;43.944;2023-04-15T15:31:58;12.60;;;3.10;;
69979;SDS011;57318;56.232;43.944;2023-04-15T15:34:24;4.30;;;2.90;;
69979;SDS011;57318;56.232;43.944;2023-04-15T15:36:50;8.52;;;3.00;;
69979;SDS011;57318;56.232;43.944;2023-04-15T15:39:16;3.90;;;2.83;;
69979;SDS011;57318;56.232;43.944;2023-04-15T15:41:42;3.50;;;2.43;;
69979;SDS011;57318;56.232;43.944;2023-04-15T15:44:08;12.23;;;3.10;;
69979;SDS011;57318;56.232;43.944;2023-04-15T15:46:33;12.63;;;3.33;;
69979;SDS011;57318;56.232;43.944;2023-04-15T15:49:01;22.47;;;3.87;;
69979;SDS011;57318;56.232;43.944;2023-04-15T15:51:27;8.20;;;2.80;;
69979;SDS011;57318;56.232;43.944;2023-04-15T15:53:53;6.17;;;2.80;;
69979;SDS011;57318;56.232;43.944;2023-04-15T15:56:19;6.90;;;2.80;;
69979;SDS011;57318;56.232;43.944;2023-04-15T15:58:45;11.02;;;3.70;;
69979;SDS011;57318;56.232;43.944;2023-04-15T16:01:10;10.77;;;3.67;;
69979;SDS011;57318;56.232;43.944;2023-04-15T16:03:36;18.97;;;3.93;;
69979;SDS011;57318;56.232;43.944;2023-04-15T16:06:04;19.90;;;4.77;;
69979;SDS011;57318;56.232;43.944;2023-04-15T16:08:30;28.83;;;4.53;;
69979;SDS011;57318;56.232;43.944;2023-04-15T16:10:56;25.63;;;4.47;;
69979;SDS011;57318;56.232;43.944;2023-04-15T16:13:22;15.68;;;4.70;;
69979;SDS011;57318;56.232;43.944;2023-04-15T16:15:48;18.53;;;3.77;;
69979;SDS011;57318;56.232;43.944;2023-04-15T16:18:16;16.92;;;5.63;;
69979;SDS011;57318;56.232;43.944;2023-04-15T16:20:42;21.30;;;6.22;;
69979;SDS011;57318;56.232;43.944;2023-04-15T16:23:12;16.83;;;5.57;;
69979;SDS011;57318;56.232;43.944;2023-04-15T16:25:40;11.10;;;5.15;;
69979;SDS011;57318;56.232;43.944;2023-04-15T16:28:06;13.50;;;5.80;;
69979;SDS011;57318;56.232;43.944;2023-04-15T16:30:35;24.73;;;7.57;;